Time;durP1;ratioP1;P1;durP2;ratioP2;P2;SDS_P1;SDS_P2;PMS_P1;PMS_P2;Temp;Humidity;BMP_temperature;BMP_pressure;BME280_temperature;BME280_humidity;BME280_pressure;Samples;Min_cycle;Max_cycle;Signal;HPM_P1;HPM_P2
2023/11/27 00:00:13;;;;;;;15.38;4.30;;;5.20;99.90;;;;;;4948582;29;20053;-46
2023/11/27 00:02:38;;;;;;;14.77;4.85;;;5.20;99.90;;;;;;4948278;29;20046;-47
2023/11/27 00:05:05;;;;;;;12.02;4.28;;;5.20;99.90;;;;;;4948481;28;20102;-48
2023/11/27 00:07:30;;;;;;;11.57;4.00;;;5.20;99.90;;;;;;4948423;28;20081;-47
2023/11/27 00:09:55;;;;;;;13.40;4.63;;;5.20;99.90;;;;;;4948250;29;20027;-52
2023/11/27 00:12:21;;;;;;;13.65;4.82;;;5.20;99.90;;;;;;4930703;29;20023;-48
2023/11/27 00:14:46;;;;;;;8.55;4.10;;;5.10;99.90;;;;;;4930968;29;20031;-47
2023/11/27 00:17:12;;;;;;;13.57;5.05;;;5.10;99.90;;;;;;4948410;29;20027;-49
2023/11/27 00:19:38;;;;;;;8.80;4.15;;;5.10;99.90;;;;;;4948210;29;20031;-51
2023/11/27 00:22:04;;;;;;;12.05;4.35;;;5.00;99.90;;;;;;4947838;29;20044;-48
2023/11/27 00:24:29;;;;;;;10.65;4.40;;;5.00;99.90;;;;;;4947932;28;20039;-48
2023/11/27 00:26:54;;;;;;;14.10;4.45;;;5.00;99.90;;;;;;4948145;29;20035;-51
2023/11/27 00:29:20;;;;;;;26.30;9.82;;;5.00;99.90;;;;;;4948051;29;20024;-54
2023/11/27 00:31:46;;;;;;;85.65;40.72;;;5.00;99.90;;;;;;4947902;28;20403;-51
2023/11/27 00:34:12;;;;;;;23.77;5.20;;;5.00;99.90;;;;;;4930768;29;20034;-51
2023/11/27 00:36:38;;;;;;;10.13;3.92;;;5.00;99.90;;;;;;4948163;29;20420;-48
2023/11/27 00:39:08;;;;;;;9.52;3.35;;;5.00;99.90;;;;;;4972358;22;20114;-43
2023/11/27 00:41:34;;;;;;;7.82;4.20;;;5.00;99.90;;;;;;4967773;28;20077;-44
2023/11/27 00:44:00;;;;;;;12.40;4.40;;;5.00;99.90;;;;;;4952342;28;20018;-45
2023/11/27 00:46:26;;;;;;;17.70;4.47;;;5.00;99.90;;;;;;4970381;28;20031;-46
2023/11/27 00:48:52;;;;;;;10.27;4.50;;;4.90;99.90;;;;;;4953113;28;20052;-44
2023/11/27 00:51:17;;;;;;;8.65;3.78;;;5.00;99.90;;;;;;4970820;28;20019;-48
2023/11/27 00:53:43;;;;;;;12.85;4.20;;;4.90;99.90;;;;;;4952712;28;20390;-48
2023/11/27 00:56:08;;;;;;;11.43;4.03;;;5.00;99.90;;;;;;4970214;28;20031;-49
2023/11/27 00:58:34;;;;;;;13.98;4.90;;;4.90;99.90;;;;;;4952866;28;20023;-46
2023/11/27 01:00:59;;;;;;;8.02;3.58;;;4.90;99.90;;;;;;4952598;28;20023;-48
2023/11/27 01:03:25;;;;;;;11.95;4.55;;;4.90;99.90;;;;;;4968806;28;20050;-48
2023/11/27 01:05:51;;;;;;;15.27;3.83;;;5.00;99.90;;;;;;4970008;28;20031;-49
2023/11/27 01:08:17;;;;;;;8.48;4.22;;;5.00;99.90;;;;;;4969925;28;20034;-45
2023/11/27 01:10:42;;;;;;;12.68;4.25;;;5.00;99.90;;;;;;4952574;28;20031;-44
2023/11/27 01:13:10;;;;;;;10.43;4.18;;;5.00;99.90;;;;;;4970422;28;20027;-44
2023/11/27 01:15:35;;;;;;;8.10;4.15;;;5.00;99.90;;;;;;4970100;28;20027;-45
2023/11/27 01:18:01;;;;;;;6.68;3.85;;;5.00;99.90;;;;;;4969805;28;20030;-47
2023/11/27 01:20:27;;;;;;;10.13;4.32;;;5.10;99.90;;;;;;4952971;28;20027;-46
2023/11/27 01:22:53;;;;;;;12.68;4.25;;;5.10;99.90;;;;;;4969734;28;20035;-46
2023/11/27 01:25:19;;;;;;;6.75;4.35;;;5.10;99.90;;;;;;4952763;28;20027;-46
2023/11/27 01:27:44;;;;;;;9.93;3.55;;;5.10;99.90;;;;;;4970165;28;20023;-47
2023/11/27 01:30:10;;;;;;;9.48;4.97;;;5.10;99.90;;;;;;4969940;28;20429;-44
2023/11/27 01:32:36;;;;;;;11.65;4.47;;;5.10;99.90;;;;;;4969637;28;20059;-46
2023/11/27 01:35:01;;;;;;;10.98;4.50;;;5.10;99.90;;;;;;4969877;28;20031;-45
2023/11/27 01:37:27;;;;;;;6.75;3.63;;;5.10;99.90;;;;;;4969942;28;20025;-44
2023/11/27 01:39:52;;;;;;;9.48;4.32;;;5.10;99.90;;;;;;4969744;28;20084;-45
2023/11/27 01:42:18;;;;;;;13.95;4.55;;;5.00;99.90;;;;;;4969681;28;20035;-45
2023/11/27 01:44:43;;;;;;;6.30;3.83;;;5.10;99.90;;;;;;4969645;28;20099;-46
2023/11/27 01:47:09;;;;;;;11.13;4.50;;;5.10;99.90;;;;;;4969881;28;20038;-45
2023/11/27 01:49:38;;;;;;;16.80;4.20;;;5.00;99.90;;;;;;4969489;28;20023;-51
2023/11/27 01:52:05;;;;;;;10.80;4.43;;;5.10;99.90;;;;;;4969148;28;20398;-46
2023/11/27 01:54:31;;;;;;;16.15;4.43;;;5.10;99.90;;;;;;4951746;28;20153;-50
2023/11/27 01:56:58;;;;;;;6.53;3.35;;;5.00;99.90;;;;;;4952075;28;20034;-44
2023/11/27 01:59:24;;;;;;;8.88;4.00;;;5.00;99.90;;;;;;4969259;28;20417;-50
2023/11/27 02:01:50;;;;;;;11.10;4.50;;;5.00;99.90;;;;;;4969357;28;20141;-47
2023/11/27 02:04:16;;;;;;;9.27;3.47;;;5.00;99.90;;;;;;4969090;28;20502;-50
2023/11/27 02:06:41;;;;;;;14.25;3.70;;;5.00;99.90;;;;;;4969285;28;20027;-48
2023/11/27 02:09:08;;;;;;;11.60;3.95;;;5.00;99.90;;;;;;4951951;28;20065;-46
2023/11/27 02:11:49;;;;;;;13.68;4.20;;;5.10;99.90;;;;;;4951928;28;20030;-52
2023/11/27 02:14:16;;;;;;;8.23;4.78;;;5.10;99.90;;;;;;4969052;28;20023;-50
2023/11/27 02:16:46;;;;;;;9.77;4.70;;;5.10;99.90;;;;;;4972573;28;20421;-50
2023/11/27 02:19:13;;;;;;;7.65;3.60;;;5.10;99.90;;;;;;4972538;28;20037;-47
2023/11/27 02:21:39;;;;;;;12.70;4.03;;;5.00;99.90;;;;;;4972482;28;20023;-49
2023/11/27 02:24:05;;;;;;;12.10;3.65;;;5.10;99.90;;;;;;4954572;28;20065;-44
2023/11/27 02:26:30;;;;;;;10.68;2.90;;;5.00;99.90;;;;;;4972100;28;20042;-47
2023/11/27 02:28:56;;;;;;;8.82;3.83;;;5.00;99.90;;;;;;4972072;28;20031;-45
2023/11/27 02:31:22;;;;;;;6.45;3.50;;;5.10;99.90;;;;;;4972231;28;20035;-45
2023/11/27 02:33:47;;;;;;;8.35;3.50;;;5.10;99.90;;;;;;4971945;28;20439;-50
2023/11/27 02:36:13;;;;;;;10.82;4.13;;;5.10;99.90;;;;;;4954557;28;20490;-42
2023/11/27 02:38:38;;;;;;;10.88;3.97;;;5.10;99.90;;;;;;4971941;28;20110;-49
2023/11/27 02:41:05;;;;;;;8.52;3.10;;;5.10;99.90;;;;;;4971946;28;20109;-42
2023/11/27 02:43:30;;;;;;;12.32;4.72;;;5.00;99.90;;;;;;4971857;28;20023;-44
2023/11/27 02:45:56;;;;;;;11.85;3.88;;;5.10;99.90;;;;;;4971970;28;20398;-45
2023/11/27 02:48:22;;;;;;;6.35;3.35;;;5.00;99.90;;;;;;4971945;28;20106;-48
2023/11/27 02:50:47;;;;;;;7.75;3.88;;;5.00;99.90;;;;;;4971676;28;20029;-50
2023/11/27 02:53:14;;;;;;;12.32;4.25;;;5.00;99.90;;;;;;4971578;28;20025;-48
2023/11/27 02:55:40;;;;;;;8.90;3.60;;;5.00;99.90;;;;;;4971662;28;20105;-48
2023/11/27 02:58:07;;;;;;;9.40;4.03;;;5.00;99.90;;;;;;4971652;28;20102;-46
2023/11/27 03:00:33;;;;;;;6.40;3.38;;;5.10;99.90;;;;;;4971578;28;20387;-45
2023/11/27 03:02:59;;;;;;;15.38;4.05;;;5.00;99.90;;;;;;4971378;28;20062;-45
2023/11/27 03:05:25;;;;;;;4.90;3.10;;;5.00;99.90;;;;;;4954324;28;20445;-46
2023/11/27 03:07:50;;;;;;;15.10;3.45;;;5.00;99.90;;;;;;4971393;28;20035;-48
2023/11/27 03:10:16;;;;;;;13.23;4.18;;;5.00;99.90;;;;;;4971353;28;20463;-48
2023/11/27 03:12:42;;;;;;;7.78;3.75;;;4.90;99.90;;;;;;4971492;28;20080;-44
2023/11/27 03:15:07;;;;;;;10.95;4.80;;;4.90;99.90;;;;;;4954285;28;20542;-45
2023/11/27 03:17:33;;;;;;;8.82;4.75;;;4.80;99.90;;;;;;4971465;28;20068;-45
2023/11/27 03:19:58;;;;;;;11.75;4.03;;;4.80;99.90;;;;;;4971404;28;20092;-48
2023/11/27 03:22:24;;;;;;;10.95;4.05;;;4.80;99.90;;;;;;4970949;28;20045;-49
2023/11/27 03:24:50;;;;;;;6.95;3.92;;;4.80;99.90;;;;;;4971296;28;20034;-50
2023/11/27 03:27:15;;;;;;;9.02;3.80;;;4.80;99.90;;;;;;4953206;28;20390;-47
2023/11/27 03:29:41;;;;;;;13.52;4.20;;;4.80;99.90;;;;;;4971314;28;20035;-48
2023/11/27 03:32:07;;;;;;;7.70;4.35;;;4.70;99.90;;;;;;4971601;28;20027;-49
2023/11/27 03:34:33;;;;;;;10.48;3.75;;;4.70;99.90;;;;;;4971651;28;20023;-49
2023/11/27 03:36:59;;;;;;;9.88;4.32;;;4.70;99.90;;;;;;4971441;28;20034;-45
2023/11/27 03:39:24;;;;;;;11.75;4.22;;;4.70;99.90;;;;;;4971576;28;20030;-45
2023/11/27 03:41:53;;;;;;;8.02;4.05;;;4.60;99.90;;;;;;4971727;28;20034;-47
2023/11/27 03:44:18;;;;;;;10.40;4.03;;;4.60;99.90;;;;;;4971170;28;20054;-47
2023/11/27 03:46:44;;;;;;;11.70;4.40;;;4.60;99.90;;;;;;4971106;28;20069;-48
2023/11/27 03:49:09;;;;;;;10.15;4.10;;;4.70;99.90;;;;;;4970888;28;20367;-47
2023/11/27 03:51:35;;;;;;;6.15;3.80;;;4.60;99.90;;;;;;4953477;28;20023;-46
2023/11/27 03:54:00;;;;;;;10.00;5.38;;;4.60;99.90;;;;;;4953301;28;20177;-48
2023/11/27 03:56:26;;;;;;;10.38;4.50;;;4.60;99.90;;;;;;4970913;28;20027;-48
2023/11/27 03:58:51;;;;;;;11.98;4.45;;;4.60;99.90;;;;;;4970705;28;20045;-44
2023/11/27 04:01:17;;;;;;;10.68;3.88;;;4.60;99.90;;;;;;4953462;28;20027;-45
2023/11/27 04:03:42;;;;;;;11.48;4.20;;;4.70;99.90;;;;;;4970744;28;20031;-46
2023/11/27 04:06:09;;;;;;;8.13;4.30;;;4.70;99.90;;;;;;4970837;28;20023;-47
2023/11/27 04:08:38;;;;;;;11.25;4.15;;;4.60;99.90;;;;;;4970783;28;20027;-46
2023/11/27 04:11:06;;;;;;;5.65;3.47;;;4.60;99.90;;;;;;4970743;28;20076;-47
2023/11/27 04:13:33;;;;;;;10.02;3.75;;;4.60;99.90;;;;;;4953215;28;20041;-46
2023/11/27 04:15:58;;;;;;;13.02;4.60;;;4.60;99.90;;;;;;4970539;28;20015;-47
2023/11/27 04:18:24;;;;;;;14.95;4.22;;;4.60;99.90;;;;;;4970684;28;20031;-49
2023/11/27 04:20:49;;;;;;;7.50;3.80;;;4.60;99.90;;;;;;4970557;28;20035;-46
2023/11/27 04:23:15;;;;;;;17.45;6.57;;;4.60;99.90;;;;;;4953019;28;20034;-46
2023/11/27 04:25:40;;;;;;;9.15;4.10;;;4.60;99.90;;;;;;4970744;28;20041;-46
2023/11/27 04:28:06;;;;;;;13.35;4.88;;;4.60;99.90;;;;;;4970692;28;20027;-47
2023/11/27 04:30:31;;;;;;;10.32;4.43;;;4.60;99.90;;;;;;4970636;28;20034;-45
2023/11/27 04:32:57;;;;;;;12.70;4.47;;;4.50;99.90;;;;;;4970275;28;20106;-47
2023/11/27 04:35:23;;;;;;;15.43;4.38;;;4.50;99.90;;;;;;4970711;28;20063;-45
2023/11/27 04:37:49;;;;;;;14.07;5.18;;;4.50;99.90;;;;;;4970616;28;20393;-45
2023/11/27 04:40:14;;;;;;;6.65;3.92;;;4.50;99.90;;;;;;4953611;28;20114;-43
2023/11/27 04:42:40;;;;;;;9.55;5.15;;;4.40;99.90;;;;;;4970666;28;20026;-45
2023/11/27 04:45:07;;;;;;;12.25;4.10;;;4.50;99.90;;;;;;4953468;28;20034;-45
2023/11/27 04:47:33;;;;;;;9.80;4.68;;;4.40;99.90;;;;;;4970845;28;20033;-44
2023/11/27 04:49:58;;;;;;;11.35;4.18;;;4.40;99.90;;;;;;4970384;28;20394;-46
2023/11/27 04:52:24;;;;;;;11.27;4.03;;;4.40;99.90;;;;;;4970573;28;20047;-45
2023/11/27 04:54:49;;;;;;;10.57;4.32;;;4.40;99.90;;;;;;4970545;28;20097;-47
2023/11/27 04:57:15;;;;;;;13.30;3.92;;;4.40;99.90;;;;;;4970642;28;20027;-45
2023/11/27 04:59:40;;;;;;;7.95;3.95;;;4.30;99.90;;;;;;4970282;28;20110;-45
2023/11/27 05:02:06;;;;;;;6.68;3.85;;;4.40;99.90;;;;;;4970517;28;20030;-48
2023/11/27 05:04:33;;;;;;;7.30;3.92;;;4.40;99.90;;;;;;4970806;28;20023;-43
2023/11/27 05:07:00;;;;;;;11.30;4.43;;;4.40;99.90;;;;;;4970531;28;20516;-45
2023/11/27 05:09:26;;;;;;;12.50;5.28;;;4.40;99.90;;;;;;4970665;28;20494;-46
2023/11/27 05:11:52;;;;;;;13.80;5.53;;;4.40;99.90;;;;;;4970693;28;20027;-46
2023/11/27 05:14:17;;;;;;;12.35;5.05;;;4.30;99.90;;;;;;4952819;28;20093;-46
2023/11/27 05:16:43;;;;;;;15.43;5.38;;;4.30;99.90;;;;;;4952985;28;20041;-45
2023/11/27 05:19:09;;;;;;;18.85;5.80;;;4.20;99.90;;;;;;4952481;28;20034;-44
2023/11/27 05:21:34;;;;;;;9.60;5.85;;;4.20;99.90;;;;;;4970112;28;20042;-50
2023/11/27 05:24:00;;;;;;;11.27;6.10;;;4.10;99.90;;;;;;4952951;28;20034;-45
2023/11/27 05:26:26;;;;;;;12.32;5.72;;;4.10;99.90;;;;;;4952581;28;20440;-45
2023/11/27 05:28:52;;;;;;;12.45;7.40;;;4.10;99.90;;;;;;4969833;28;20019;-51
2023/11/27 05:31:18;;;;;;;16.23;7.13;;;4.00;99.90;;;;;;4969753;28;20108;-47
2023/11/27 05:33:44;;;;;;;13.82;6.30;;;4.00;99.90;;;;;;4951796;28;20406;-45
2023/11/27 05:36:09;;;;;;;15.73;7.65;;;4.00;99.90;;;;;;4969542;28;20023;-46
2023/11/27 05:38:35;;;;;;;13.93;6.68;;;4.00;99.90;;;;;;4969623;28;20019;-48
2023/11/27 05:41:01;;;;;;;9.55;6.30;;;4.10;99.90;;;;;;4969770;28;20042;-45
2023/11/27 05:43:27;;;;;;;13.43;6.78;;;4.10;99.90;;;;;;4969840;28;20023;-47
2023/11/27 05:45:53;;;;;;;13.50;7.85;;;4.10;99.90;;;;;;4969445;28;20067;-48
2023/11/27 05:48:19;;;;;;;18.95;7.38;;;4.10;99.90;;;;;;4951837;28;20054;-49
2023/11/27 05:50:46;;;;;;;11.82;6.70;;;4.00;99.90;;;;;;4937884;28;20122;-47
2023/11/27 05:53:12;;;;;;;9.95;6.30;;;4.00;99.90;;;;;;4972433;28;20148;-50
2023/11/27 05:55:38;;;;;;;9.00;6.75;;;4.10;99.90;;;;;;4972595;28;20015;-46
2023/11/27 05:58:04;;;;;;;11.10;5.78;;;4.10;99.90;;;;;;4972607;28;20023;-46
2023/11/27 06:00:30;;;;;;;12.40;6.05;;;4.10;99.90;;;;;;4955108;28;20087;-46
2023/11/27 06:02:56;;;;;;;10.90;6.20;;;4.10;99.90;;;;;;4972249;28;20486;-50
2023/11/27 06:05:22;;;;;;;14.90;6.57;;;4.00;99.90;;;;;;4972531;28;20502;-45
2023/11/27 06:07:48;;;;;;;15.63;5.95;;;4.10;99.90;;;;;;4972754;28;20046;-45
2023/11/27 06:10:14;;;;;;;13.48;6.00;;;4.00;99.90;;;;;;4972486;28;20026;-45
2023/11/27 06:12:40;;;;;;;11.95;6.10;;;4.00;99.90;;;;;;4972203;28;20022;-47
2023/11/27 06:15:06;;;;;;;11.07;6.32;;;4.10;99.90;;;;;;4955131;28;20478;-46
2023/11/27 06:17:32;;;;;;;14.07;7.18;;;4.10;99.90;;;;;;4972337;28;20030;-49
2023/11/27 06:19:57;;;;;;;19.30;7.35;;;4.10;99.90;;;;;;4972216;28;20060;-44
2023/11/27 06:22:23;;;;;;;15.90;7.43;;;4.10;99.90;;;;;;4972042;28;20053;-49
2023/11/27 06:24:49;;;;;;;15.98;9.23;;;4.10;99.90;;;;;;4955004;28;20034;-50
2023/11/27 06:27:15;;;;;;;11.60;6.85;;;4.20;99.90;;;;;;4972186;28;20027;-48
2023/11/27 06:29:40;;;;;;;11.57;6.40;;;4.10;99.90;;;;;;4972073;28;20061;-48
2023/11/27 06:32:06;;;;;;;14.43;6.80;;;4.10;99.90;;;;;;4954604;28;20055;-48
2023/11/27 06:34:32;;;;;;;15.00;6.85;;;4.10;99.90;;;;;;4972232;28;20022;-45
2023/11/27 06:36:57;;;;;;;20.27;7.40;;;4.20;99.90;;;;;;4972354;28;20437;-48
2023/11/27 06:39:26;;;;;;;12.48;7.03;;;4.20;99.90;;;;;;4972751;28;20034;-45
2023/11/27 06:41:53;;;;;;;14.40;6.88;;;4.20;99.90;;;;;;4954656;28;20073;-48
2023/11/27 06:44:19;;;;;;;12.60;6.78;;;4.10;99.90;;;;;;4971794;28;20023;-44
2023/11/27 06:46:48;;;;;;;22.95;8.13;;;4.10;99.90;;;;;;4972044;28;20029;-43
2023/11/27 06:49:13;;;;;;;17.60;7.18;;;4.10;99.90;;;;;;4971619;28;20054;-45
2023/11/27 06:51:40;;;;;;;14.73;7.45;;;4.10;99.90;;;;;;4954563;28;20054;-43
2023/11/27 06:54:05;;;;;;;14.05;7.85;;;4.10;99.90;;;;;;4971767;28;20030;-45
2023/11/27 06:56:33;;;;;;;18.83;7.80;;;4.10;99.90;;;;;;4972229;28;20042;-45
2023/11/27 06:59:04;;;;;;;22.42;8.30;;;4.00;99.90;;;;;;4971787;28;20023;-48
2023/11/27 07:01:30;;;;;;;12.13;8.55;;;4.00;99.90;;;;;;4970594;28;20521;-48
2023/11/27 07:03:56;;;;;;;18.35;7.60;;;4.00;99.90;;;;;;4971395;28;20030;-47
2023/11/27 07:06:22;;;;;;;14.40;7.55;;;4.00;99.90;;;;;;4971584;28;20502;-48
2023/11/27 07:08:48;;;;;;;12.90;7.00;;;4.00;99.90;;;;;;4972221;28;20030;-46
2023/11/27 07:11:14;;;;;;;18.75;8.48;;;4.00;99.90;;;;;;4973399;28;20038;-45
2023/11/27 07:13:40;;;;;;;17.08;7.90;;;3.90;99.90;;;;;;4972476;28;20019;-46
2023/11/27 07:16:06;;;;;;;16.40;7.78;;;3.90;99.90;;;;;;4971281;28;20061;-48
2023/11/27 07:18:32;;;;;;;14.18;7.85;;;3.90;99.90;;;;;;4954206;28;20019;-44
2023/11/27 07:20:57;;;;;;;20.23;7.00;;;4.00;99.90;;;;;;4971507;28;21185;-47
2023/11/27 07:23:24;;;;;;;18.08;7.60;;;4.00;99.90;;;;;;4971068;28;20035;-48
2023/11/27 07:25:50;;;;;;;16.50;8.98;;;4.00;99.90;;;;;;4954090;28;20031;-46
2023/11/27 07:28:16;;;;;;;14.68;7.30;;;4.00;99.90;;;;;;4971429;28;20035;-47
2023/11/27 07:30:43;;;;;;;13.70;7.00;;;4.00;99.90;;;;;;4971595;28;20023;-45
2023/11/27 07:33:09;;;;;;;20.30;7.28;;;4.00;99.90;;;;;;4971821;28;20117;-45
2023/11/27 07:35:34;;;;;;;13.95;7.93;;;4.00;99.90;;;;;;4954339;28;20502;-44
2023/11/27 07:38:01;;;;;;;14.25;8.13;;;4.00;99.90;;;;;;4972110;28;20035;-46
2023/11/27 07:40:27;;;;;;;10.52;7.18;;;4.10;99.90;;;;;;4971647;28;20418;-46
2023/11/27 07:42:53;;;;;;;12.82;7.47;;;4.10;99.90;;;;;;4971213;28;20038;-48
2023/11/27 07:45:19;;;;;;;18.10;7.53;;;4.10;99.90;;;;;;4971327;28;20035;-45
2023/11/27 07:47:44;;;;;;;17.48;7.93;;;4.20;99.90;;;;;;4953663;28;20494;-48
2023/11/27 07:50:10;;;;;;;11.98;6.97;;;4.20;99.90;;;;;;4970750;28;20390;-46
2023/11/27 07:52:36;;;;;;;18.05;7.38;;;4.20;99.90;;;;;;4970656;28;20027;-46
2023/11/27 07:55:04;;;;;;;27.05;7.55;;;4.20;99.90;;;;;;4970851;28;20551;-47
2023/11/27 07:57:33;;;;;;;16.52;7.18;;;4.20;99.90;;;;;;4970806;28;20033;-49
2023/11/27 07:59:59;;;;;;;19.63;8.40;;;4.30;99.90;;;;;;4971257;28;20031;-48
2023/11/27 08:02:25;;;;;;;15.90;7.93;;;4.20;99.90;;;;;;4970688;28;20031;-48
2023/11/27 08:04:51;;;;;;;13.55;7.40;;;4.20;99.90;;;;;;4971216;28;20504;-45
2023/11/27 08:07:16;;;;;;;12.73;6.65;;;4.20;99.90;;;;;;4970795;28;20035;-51
2023/11/27 08:09:49;;;;;;;12.85;6.93;;;4.20;99.90;;;;;;4970725;28;20057;-45
2023/11/27 08:12:16;;;;;;;14.15;7.15;;;4.20;99.90;;;;;;4970251;28;20072;-46
2023/11/27 08:14:41;;;;;;;11.13;7.68;;;4.20;99.90;;;;;;4970325;28;20030;-48
2023/11/27 08:17:07;;;;;;;14.25;7.00;;;4.30;99.90;;;;;;4970517;28;20027;-51
2023/11/27 08:19:34;;;;;;;17.90;8.23;;;4.30;99.90;;;;;;4970556;28;20034;-49
2023/11/27 08:22:03;;;;;;;14.05;7.25;;;4.20;99.90;;;;;;4970275;28;20034;-51
2023/11/27 08:24:31;;;;;;;13.82;7.53;;;4.20;99.90;;;;;;4970337;28;20030;-50
2023/11/27 08:26:57;;;;;;;18.55;7.60;;;4.30;99.90;;;;;;4970915;28;20023;-46
2023/11/27 08:29:25;;;;;;;22.55;8.23;;;4.40;99.90;;;;;;4952985;28;20034;-49
2023/11/27 08:31:53;;;;;;;13.75;7.35;;;4.40;99.90;;;;;;4970324;28;20030;-46
2023/11/27 08:34:19;;;;;;;16.88;8.52;;;4.40;99.90;;;;;;4970158;28;20027;-44
2023/11/27 08:36:45;;;;;;;15.30;7.07;;;4.40;99.90;;;;;;4970298;28;20027;-50
2023/11/27 08:39:11;;;;;;;15.65;7.35;;;4.50;99.90;;;;;;4952747;28;20122;-42
2023/11/27 08:41:37;;;;;;;13.23;7.65;;;4.50;99.90;;;;;;4970113;28;20026;-49
2023/11/27 08:44:06;;;;;;;15.23;8.20;;;4.50;99.90;;;;;;4970075;28;20033;-46
2023/11/27 08:46:31;;;;;;;22.45;7.80;;;4.50;99.90;;;;;;4970196;28;20023;-47
2023/11/27 08:48:57;;;;;;;15.30;7.15;;;4.40;99.90;;;;;;4970065;28;20034;-48
2023/11/27 08:51:25;;;;;;;15.63;7.65;;;4.40;99.90;;;;;;4969965;28;20428;-46
2023/11/27 08:53:52;;;;;;;18.95;8.20;;;4.40;99.90;;;;;;4952326;28;20026;-51
2023/11/27 08:56:18;;;;;;;16.15;8.05;;;4.40;99.90;;;;;;4970086;28;20045;-45
2023/11/27 08:58:47;;;;;;;18.98;7.25;;;4.50;99.90;;;;;;4970149;28;20023;-48
2023/11/27 09:01:16;;;;;;;19.33;8.32;;;4.50;99.90;;;;;;4955001;28;20046;-52
2023/11/27 09:03:42;;;;;;;16.05;7.20;;;4.40;99.90;;;;;;4953653;28;20046;-46
2023/11/27 09:06:09;;;;;;;16.10;7.88;;;4.50;99.90;;;;;;4950711;29;20032;-49
2023/11/27 09:08:34;;;;;;;20.33;8.02;;;4.50;99.90;;;;;;4952605;28;20019;-48
2023/11/27 09:11:00;;;;;;;17.85;10.48;;;4.50;99.90;;;;;;4934258;28;20050;-48
2023/11/27 09:13:26;;;;;;;13.23;7.63;;;4.40;99.90;;;;;;4964879;28;20030;-52
2023/11/27 09:15:51;;;;;;;13.07;7.25;;;4.40;99.90;;;;;;4950302;28;20368;-49
2023/11/27 09:18:17;;;;;;;16.13;9.60;;;4.40;99.90;;;;;;4950241;28;20023;-51
2023/11/27 09:20:42;;;;;;;14.70;8.00;;;4.50;99.90;;;;;;4933154;29;20031;-51
2023/11/27 09:23:08;;;;;;;16.42;7.88;;;4.50;99.90;;;;;;4950029;28;20534;-49
2023/11/27 09:25:34;;;;;;;16.52;7.45;;;4.50;99.90;;;;;;4934996;29;20367;-53
2023/11/27 09:27:59;;;;;;;14.98;7.57;;;4.40;99.90;;;;;;4953909;29;20077;-52
2023/11/27 09:30:25;;;;;;;12.38;7.90;;;4.40;99.90;;;;;;4936558;29;20027;-50
2023/11/27 09:32:51;;;;;;;15.23;6.95;;;4.50;99.90;;;;;;4936341;29;20031;-50
2023/11/27 09:35:16;;;;;;;20.65;7.20;;;4.40;99.90;;;;;;4984414;28;20018;-50
2023/11/27 09:37:42;;;;;;;11.88;6.80;;;4.40;99.90;;;;;;4992141;28;20493;-50
2023/11/27 09:40:10;;;;;;;14.65;7.68;;;4.40;99.90;;;;;;4974405;28;20421;-49
2023/11/27 09:42:36;;;;;;;11.75;6.82;;;4.40;99.90;;;;;;4974768;28;20033;-48
2023/11/27 09:45:10;;;;;;;13.05;5.78;;;4.40;99.90;;;;;;4992624;28;20063;-50
2023/11/27 09:47:43;;;;;;;9.18;5.55;;;4.40;99.90;;;;;;4975203;28;20434;-49
2023/11/27 09:50:11;;;;;;;9.60;5.60;;;4.40;99.90;;;;;;4974775;28;20076;-51
2023/11/27 09:53:09;;;;;;;16.83;5.97;;;4.40;99.90;;;;;;4992167;28;20101;-51
2023/11/27 09:55:37;;;;;;;8.95;4.85;;;4.30;99.90;;;;;;4938823;28;20431;-51
2023/11/27 09:58:05;;;;;;;5.35;3.92;;;4.20;99.90;;;;;;4974908;28;20502;-48
2023/11/27 10:00:31;;;;;;;8.75;3.35;;;4.30;99.90;;;;;;4992194;28;20034;-53
2023/11/27 10:02:58;;;;;;;23.73;5.38;;;4.10;99.90;;;;;;4991795;28;20030;-49
2023/11/27 10:05:24;;;;;;;12.15;4.15;;;4.00;99.90;;;;;;4992307;28;20041;-48
2023/11/27 10:07:51;;;;;;;5.70;4.40;;;4.00;99.90;;;;;;4974735;28;20448;-50
2023/11/27 10:10:25;;;;;;;7.97;4.63;;;4.00;99.90;;;;;;4991802;28;20434;-49
2023/11/27 10:12:58;;;;;;;4.22;3.60;;;3.90;99.90;;;;;;4991912;28;20462;-52
2023/11/27 10:15:27;;;;;;;7.22;4.05;;;3.90;99.90;;;;;;4992036;28;20026;-52
2023/11/27 10:17:57;;;;;;;8.25;4.03;;;3.80;99.90;;;;;;4991894;28;20511;-47
2023/11/27 10:20:26;;;;;;;11.25;4.65;;;3.80;99.90;;;;;;4973698;28;20033;-48
2023/11/27 10:22:58;;;;;;;12.55;4.35;;;3.70;99.90;;;;;;4991680;28;20106;-50
2023/11/27 10:25:24;;;;;;;10.82;4.93;;;3.80;99.90;;;;;;4974394;28;20053;-51
2023/11/27 10:28:00;;;;;;;14.38;4.97;;;3.80;99.90;;;;;;4991822;28;20543;-54
2023/11/27 10:30:29;;;;;;;7.18;4.95;;;3.80;99.90;;;;;;4991371;28;20034;-54
2023/11/27 10:32:55;;;;;;;8.57;5.10;;;3.90;99.90;;;;;;4991522;28;20408;-49
2023/11/27 10:35:25;;;;;;;5.10;3.90;;;3.90;99.90;;;;;;4991826;28;20105;-48
2023/11/27 10:37:54;;;;;;;9.50;4.60;;;3.80;99.90;;;;;;4991751;28;20098;-49
2023/11/27 10:40:21;;;;;;;14.98;4.93;;;3.90;99.90;;;;;;4991218;28;20130;-52
2023/11/27 10:42:48;;;;;;;9.30;5.72;;;3.80;99.90;;;;;;4991228;28;20080;-50
2023/11/27 10:45:18;;;;;;;8.25;5.03;;;3.70;99.90;;;;;;4973712;28;20030;-53
2023/11/27 10:47:46;;;;;;;9.50;4.35;;;3.70;99.90;;;;;;4991299;28;20096;-50
2023/11/27 10:50:15;;;;;;;7.88;4.45;;;3.70;99.90;;;;;;4991190;28;20026;-52
2023/11/27 10:52:48;;;;;;;11.07;5.22;;;3.60;99.90;;;;;;4990952;28;20389;-48
2023/11/27 10:55:17;;;;;;;9.05;5.50;;;3.60;99.90;;;;;;4973766;28;20106;-49
2023/11/27 10:57:44;;;;;;;7.50;4.78;;;3.60;99.90;;;;;;4991287;28;20030;-51
2023/11/27 11:00:14;;;;;;;11.10;5.00;;;3.60;99.90;;;;;;4981742;28;20035;-49
2023/11/27 11:02:48;;;;;;;10.23;4.30;;;3.50;99.90;;;;;;4968892;28;20622;-53
2023/11/27 11:05:16;;;;;;;11.00;5.00;;;3.50;99.90;;;;;;4952697;28;20108;-54
2023/11/27 11:07:44;;;;;;;7.18;5.22;;;3.50;99.90;;;;;;4950232;28;20491;-46
2023/11/27 11:10:11;;;;;;;8.85;5.30;;;3.50;99.90;;;;;;4961330;28;20545;-47
2023/11/27 11:12:40;;;;;;;10.27;5.28;;;3.40;99.90;;;;;;4991902;28;20020;-61
2023/11/27 11:15:07;;;;;;;13.40;5.10;;;3.40;99.90;;;;;;4990009;28;20018;-59
2023/11/27 11:17:59;;;;;;;12.10;5.97;;;3.40;99.90;;;;;;4959043;28;20440;-59
2023/11/27 11:20:50;;;;;;;7.45;4.93;;;3.30;99.90;;;;;;4937692;28;20031;-47
2023/11/27 11:23:19;;;;;;;13.77;5.70;;;3.30;99.90;;;;;;4962872;28;20098;-51
2023/11/27 11:25:49;;;;;;;11.07;5.53;;;3.30;99.90;;;;;;4935107;29;20138;-45
2023/11/27 11:28:29;;;;;;;12.13;6.25;;;3.30;99.90;;;;;;4947108;28;20062;-52
2023/11/27 11:31:15;;;;;;;6.50;4.72;;;3.40;99.90;;;;;;4971383;28;20039;-49
2023/11/27 11:33:44;;;;;;;8.20;4.88;;;3.40;99.90;;;;;;4970995;28;20390;-50
2023/11/27 11:36:13;;;;;;;11.00;5.72;;;3.40;99.90;;;;;;4967612;28;20031;-49
2023/11/27 11:38:48;;;;;;;7.40;5.25;;;3.30;99.90;;;;;;4952048;28;20019;-50
2023/11/27 11:41:17;;;;;;;7.55;5.60;;;3.30;99.90;;;;;;4954176;28;20051;-45
2023/11/27 11:43:46;;;;;;;11.05;6.05;;;3.30;99.90;;;;;;4965369;28;20401;-47
2023/11/27 11:46:17;;;;;;;8.02;5.45;;;3.30;99.90;;;;;;4952182;28;20030;-47
2023/11/27 11:48:49;;;;;;;8.55;5.75;;;3.30;99.90;;;;;;4965281;28;20023;-51
2023/11/27 11:51:16;;;;;;;10.77;5.68;;;3.30;99.90;;;;;;4960830;28;20471;-50
2023/11/27 11:53:42;;;;;;;15.55;9.20;;;3.30;99.90;;;;;;4962126;28;20144;-47
2023/11/27 11:56:20;;;;;;;64.78;30.50;;;3.30;99.90;;;;;;4951691;29;20020;-49
2023/11/27 11:59:10;;;;;;;9.75;6.18;;;3.30;99.90;;;;;;4948192;28;20034;-51
2023/11/27 12:01:41;;;;;;;8.73;5.78;;;3.30;99.90;;;;;;4982493;28;20041;-51
2023/11/27 12:04:08;;;;;;;10.55;6.05;;;3.30;99.90;;;;;;4962913;28;20380;-51
2023/11/27 12:06:41;;;;;;;10.30;7.13;;;3.20;99.90;;;;;;5016939;28;20038;-55
2023/11/27 12:09:09;;;;;;;10.13;5.75;;;3.20;99.90;;;;;;4953373;28;20023;-50
2023/11/27 12:11:35;;;;;;;11.48;5.85;;;3.20;99.90;;;;;;4956880;28;20046;-49
2023/11/27 12:14:18;;;;;;;7.70;5.93;;;3.10;99.90;;;;;;4951673;28;20031;-53
2023/11/27 12:16:46;;;;;;;11.25;4.85;;;3.20;99.90;;;;;;4951329;28;20035;-56
2023/11/27 12:19:12;;;;;;;10.82;5.65;;;3.10;99.90;;;;;;4934247;29;20031;-55
2023/11/27 12:21:38;;;;;;;12.38;5.72;;;3.20;99.90;;;;;;4951488;29;20028;-57
2023/11/27 12:24:05;;;;;;;9.77;5.50;;;3.20;99.90;;;;;;4966016;28;20148;-55
2023/11/27 12:26:31;;;;;;;10.70;5.82;;;3.20;99.90;;;;;;4968184;28;20045;-54
2023/11/27 12:28:57;;;;;;;8.98;5.70;;;3.30;99.90;;;;;;4965132;28;20026;-57
2023/11/27 12:31:27;;;;;;;8.10;3.95;;;3.30;99.90;;;;;;5006428;28;20024;-55
2023/11/27 12:33:53;;;;;;;6.32;3.78;;;3.20;99.90;;;;;;5048960;28;20029;-58
2023/11/27 12:36:22;;;;;;;8.73;4.15;;;3.20;99.90;;;;;;4952496;28;20117;-60
2023/11/27 12:38:52;;;;;;;8.52;4.00;;;3.20;99.90;;;;;;4952242;28;20396;-53
2023/11/27 12:41:29;;;;;;;8.75;3.60;;;3.10;99.90;;;;;;4990341;22;20534;-46
2023/11/27 12:44:06;;;;;;;8.20;3.88;;;3.20;99.90;;;;;;4974889;28;20133;-49
2023/11/27 12:46:32;;;;;;;8.02;2.95;;;3.20;99.90;;;;;;4970987;28;20030;-47
2023/11/27 12:49:03;;;;;;;4.90;3.03;;;3.10;99.90;;;;;;4969875;28;20482;-49